Time;durP1;ratioP1;P1;durP2;ratioP2;P2;SDS_P1;SDS_P2;PMS_P1;PMS_P2;Temp;Humidity;BMP_temperature;BMP_pressure;BME280_temperature;BME280_humidity;BME280_pressure;Samples;Min_cycle;Max_cycle;Signal;HPM_P1;HPM_P2
2023/02/07 00:01:11;;;;;;;33.35;13.60;;;-3274.00;99.30;;;;;;5032954;28;20037;-72
2023/02/07 00:03:38;;;;;;;36.83;13.45;;;-3274.00;99.30;;;;;;5018728;28;20569;-72
2023/02/07 00:06:12;;;;;;;35.28;13.93;;;-3273.90;99.30;;;;;;5024187;28;20120;-73
2023/02/07 00:08:38;;;;;;;36.03;13.10;;;-3273.80;99.10;;;;;;5029926;28;20026;-72
2023/02/07 00:11:06;;;;;;;35.50;13.02;;;-3273.70;99.10;;;;;;5016953;28;20785;-72
2023/02/07 00:13:31;;;;;;;29.73;12.13;;;-3273.70;99.30;;;;;;5019818;28;20041;-73
2023/02/07 00:15:58;;;;;;;25.60;11.68;;;-3273.90;99.40;;;;;;5024367;28;20037;-72
2023/02/07 00:18:24;;;;;;;32.40;11.57;;;-3273.90;99.40;;;;;;5024842;28;20033;-71
2023/02/07 00:21:00;;;;;;;30.55;12.38;;;-3273.90;99.40;;;;;;5026363;28;20041;-73
2023/02/07 00:23:26;;;;;;;34.00;11.98;;;-3273.90;99.40;;;;;;5027275;28;20050;-72
2023/02/07 00:25:52;;;;;;;28.17;11.75;;;-3273.90;99.30;;;;;;5014175;28;20030;-74
2023/02/07 00:28:17;;;;;;;30.42;12.40;;;-3273.80;99.20;;;;;;5017284;28;20041;-72
2023/02/07 00:30:43;;;;;;;31.00;12.15;;;-3273.90;99.30;;;;;;5020261;28;20057;-73
2023/02/07 00:33:08;;;;;;;31.35;11.57;;;-3273.80;99.20;;;;;;5026871;28;20036;-73
2023/02/07 00:35:34;;;;;;;32.33;12.43;;;-3273.80;99.30;;;;;;5019201;28;20121;-72
2023/02/07 00:37:59;;;;;;;33.35;11.80;;;-3273.70;99.20;;;;;;5027374;28;20033;-72
2023/02/07 00:40:25;;;;;;;33.50;11.30;;;-3273.80;99.20;;;;;;5020987;28;20042;-72
2023/02/07 00:42:50;;;;;;;29.85;12.23;;;-3273.70;99.30;;;;;;5025163;28;20041;-72
2023/02/07 00:45:16;;;;;;;35.67;10.88;;;-3273.70;99.20;;;;;;5024991;28;20466;-72
2023/02/07 00:47:41;;;;;;;29.50;10.07;;;-3273.70;99.30;;;;;;5026913;28;20073;-72
2023/02/07 00:50:07;;;;;;;35.17;12.20;;;-3273.80;99.40;;;;;;5018672;28;20529;-72
2023/02/07 00:52:32;;;;;;;27.27;11.23;;;-3273.70;99.20;;;;;;5024127;28;20052;-72
2023/02/07 00:54:58;;;;;;;26.02;11.68;;;-3273.70;99.20;;;;;;5024793;28;20095;-71
2023/02/07 00:57:23;;;;;;;34.22;11.10;;;-3273.70;99.20;;;;;;5022458;28;20057;-72
2023/02/07 00:59:49;;;;;;;34.38;10.65;;;-3273.70;99.20;;;;;;5025681;28;20437;-71
2023/02/07 01:02:14;;;;;;;32.97;10.48;;;-3273.70;99.30;;;;;;5027189;28;20084;-72
2023/02/07 01:04:40;;;;;;;29.33;10.07;;;-3273.80;99.30;;;;;;5020371;28;20435;-71
2023/02/07 01:07:05;;;;;;;31.40;11.30;;;-3273.80;99.30;;;;;;5019113;28;20225;-76
2023/02/07 01:09:31;;;;;;;29.30;10.02;;;-3273.70;99.20;;;;;;5019130;28;20030;-71
2023/02/07 01:11:56;;;;;;;35.50;11.15;;;-3273.70;99.10;;;;;;5021551;28;20358;-71
2023/02/07 01:14:22;;;;;;;26.15;10.70;;;-3273.70;99.20;;;;;;5026993;28;20473;-72
2023/02/07 01:16:48;;;;;;;29.60;10.02;;;-3273.60;99.20;;;;;;5029243;28;20037;-71
2023/02/07 01:19:14;;;;;;;35.95;10.63;;;-3273.80;99.30;;;;;;5021988;28;20037;-73
2023/02/07 01:21:40;;;;;;;34.40;11.50;;;-3273.70;99.30;;;;;;5026236;28;20032;-72
2023/02/07 01:24:07;;;;;;;33.85;11.00;;;-3273.70;99.20;;;;;;5021000;28;20064;-72
2023/02/07 01:26:33;;;;;;;36.55;11.20;;;-3273.70;99.20;;;;;;5026416;28;20099;-72
2023/02/07 01:28:59;;;;;;;29.98;10.30;;;-3273.60;99.20;;;;;;5025410;28;20069;-72
2023/02/07 01:31:25;;;;;;;35.38;12.02;;;-3273.60;99.20;;;;;;5029259;28;20179;-73
2023/02/07 01:33:55;;;;;;;33.60;11.40;;;-3273.60;99.10;;;;;;5021516;28;20029;-72
2023/02/07 01:36:20;;;;;;;35.17;10.75;;;-3273.60;99.10;;;;;;5015317;28;20021;-71
2023/02/07 01:38:46;;;;;;;36.85;11.10;;;-3273.60;99.10;;;;;;5019538;28;20050;-76
2023/02/07 01:41:12;;;;;;;34.17;10.70;;;-3273.60;99.20;;;;;;5028798;28;20389;-72
2023/02/07 01:44:25;;;;;;;33.53;11.15;;;-3273.70;99.30;;;;;;5026401;28;20058;-73
2023/02/07 01:46:52;;;;;;;29.45;10.60;;;-3273.70;99.30;;;;;;5029221;28;20044;-71
2023/02/07 01:49:22;;;;;;;31.83;10.30;;;-3273.70;99.20;;;;;;5025813;28;20030;-72
2023/02/07 01:51:53;;;;;;;;;;;-3273.70;99.20;;;;;;5019033;28;20096;-73
2023/02/07 01:54:20;;;;;;;33.38;10.45;;;-3273.60;99.10;;;;;;5024007;28;19920;-73
2023/02/07 01:56:51;;;;;;;31.42;11.80;;;-3273.60;99.10;;;;;;5026907;28;20386;-71
2023/02/07 01:59:17;;;;;;;30.92;10.93;;;-3273.60;99.10;;;;;;5024203;28;20032;-71
2023/02/07 02:01:45;;;;;;;32.10;10.93;;;-3273.50;99.10;;;;;;5024910;28;20049;-71
2023/02/07 02:04:10;;;;;;;36.67;11.15;;;-3273.60;99.20;;;;;;5022596;28;20109;-71
2023/02/07 02:06:37;;;;;;;35.90;11.80;;;-3273.60;99.20;;;;;;5024977;28;20599;-71
2023/02/07 02:09:08;;;;;;;30.00;10.73;;;-3273.60;99.20;;;;;;5028932;28;20029;-71
2023/02/07 02:12:11;;;;;;;34.03;11.48;;;-3273.70;99.30;;;;;;5021906;28;20470;-72
2023/02/07 02:15:07;;;;;;;32.83;11.98;;;-3273.90;99.30;;;;;;5021212;28;20393;-73
2023/02/07 02:18:00;;;;;;;36.45;11.32;;;-3273.90;99.20;;;;;;5023546;28;20029;-72
2023/02/07 02:21:08;;;;;;;39.83;11.43;;;-3273.90;99.20;;;;;;5025816;28;20478;-71
2023/02/07 02:24:09;;;;;;;38.08;12.75;;;-3274.00;99.10;;;;;;5026155;28;20049;-73
2023/02/07 02:26:54;;;;;;;34.10;10.98;;;-3274.00;98.90;;;;;;5024474;28;20029;-72
2023/02/07 02:29:50;;;;;;;34.88;11.95;;;-3274.00;98.80;;;;;;5020284;28;20036;-71
2023/02/07 02:32:35;;;;;;;38.25;13.65;;;-3273.90;98.80;;;;;;5023396;28;20454;-72
2023/02/07 02:35:32;;;;;;;40.08;13.02;;;-3274.00;98.80;;;;;;5022582;28;20033;-72
2023/02/07 02:38:15;;;;;;;42.28;14.90;;;-3274.00;98.70;;;;;;5020671;28;20041;-73
2023/02/07 02:41:03;;;;;;;41.45;14.35;;;-3273.90;98.70;;;;;;5027018;28;20030;-72
2023/02/07 02:43:53;;;;;;;40.28;13.93;;;-3273.90;98.60;;;;;;5028043;28;20065;-71
2023/02/07 02:46:33;;;;;;;50.95;14.27;;;-3273.90;98.60;;;;;;5027482;28;20377;-71
2023/02/07 02:49:00;;;;;;;39.28;13.75;;;-3273.80;98.50;;;;;;5012888;28;20032;-72
2023/02/07 02:51:29;;;;;;;46.65;14.75;;;-3273.80;98.50;;;;;;5021521;28;20041;-72
2023/02/07 02:53:57;;;;;;;47.10;15.02;;;-3273.80;98.50;;;;;;5024267;28;20033;-74
2023/02/07 02:56:59;;;;;;;46.33;14.73;;;-3273.70;98.50;;;;;;5024153;28;20032;-74
2023/02/07 02:59:43;;;;;;;45.92;14.07;;;-3273.70;98.50;;;;;;5020660;28;20532;-73
2023/02/07 03:02:24;;;;;;;46.53;13.80;;;-3273.70;98.50;;;;;;5024252;28;20481;-72
2023/02/07 03:05:15;;;;;;;48.70;15.50;;;-3273.70;98.50;;;;;;5024827;28;20026;-71
2023/02/07 03:08:07;;;;;;;45.40;14.32;;;-3273.70;98.50;;;;;;5019052;28;20041;-71
2023/02/07 03:11:06;;;;;;;49.83;14.68;;;-3273.70;98.60;;;;;;5022281;28;20103;-72
2023/02/07 03:13:44;;;;;;;44.45;13.98;;;-3273.60;98.50;;;;;;5020421;28;20452;-72
2023/02/07 03:16:29;;;;;;;45.55;15.48;;;-3273.70;98.60;;;;;;5021922;28;20034;-72
2023/02/07 03:19:37;;;;;;;50.28;15.40;;;-3273.70;98.60;;;;;;5025461;28;20080;-73
2023/02/07 03:22:09;;;;;;;54.80;15.45;;;-3273.70;98.40;;;;;;5023591;28;20045;-72
2023/02/07 03:24:38;;;;;;;56.72;16.35;;;-3273.60;98.40;;;;;;5020224;28;20046;-75
2023/02/07 03:27:08;;;;;;;70.75;18.42;;;-3273.70;98.60;;;;;;5411020;23;20050;-74
2023/02/07 03:29:36;;;;;;;60.95;15.98;;;-3273.70;98.50;;;;;;5005131;28;20720;-74
2023/02/07 03:32:05;;;;;;;66.43;18.20;;;-3273.80;98.60;;;;;;5002103;28;20141;-74
2023/02/07 03:34:48;;;;;;;64.57;17.63;;;-3273.70;98.50;;;;;;5008308;28;20033;-74
2023/02/07 03:37:23;;;;;;;61.95;17.75;;;-3273.80;98.60;;;;;;5009742;28;20030;-73
2023/02/07 03:39:49;;;;;;;62.30;18.30;;;-3273.80;98.60;;;;;;5008894;28;20033;-74
2023/02/07 03:42:22;;;;;;;65.15;19.08;;;-3273.80;98.60;;;;;;5011623;28;20029;-74
2023/02/07 03:44:50;;;;;;;74.28;18.65;;;-3273.80;98.60;;;;;;5008009;28;20523;-74
2023/02/07 03:47:18;;;;;;;64.72;18.52;;;-3273.70;98.50;;;;;;5007700;28;20029;-75
2023/02/07 03:49:43;;;;;;;69.28;19.52;;;-3273.70;98.50;;;;;;5016389;28;20029;-73
2023/02/07 03:52:09;;;;;;;64.70;19.30;;;-3273.70;98.60;;;;;;5005513;28;20092;-73
2023/02/07 03:54:34;;;;;;;67.20;19.15;;;-3273.70;98.60;;;;;;5008549;28;20060;-75
2023/02/07 03:57:00;;;;;;;61.72;18.88;;;-3273.70;98.60;;;;;;5004410;28;20088;-75
2023/02/07 03:59:26;;;;;;;65.97;18.75;;;-3273.80;98.60;;;;;;5009372;28;20041;-73
2023/02/07 04:01:51;;;;;;;82.95;20.95;;;-3273.80;98.70;;;;;;5013395;28;20050;-74
2023/02/07 04:04:17;;;;;;;66.43;20.13;;;-3273.80;98.60;;;;;;5012340;28;20038;-74
2023/02/07 04:06:42;;;;;;;87.57;20.80;;;-3273.80;98.70;;;;;;5009601;28;20474;-73
2023/02/07 04:09:08;;;;;;;81.00;21.05;;;-3273.80;98.60;;;;;;5010309;28;20121;-73
2023/02/07 04:11:34;;;;;;;78.05;20.85;;;-3273.80;98.50;;;;;;5013441;28;20030;-74
2023/02/07 04:13:59;;;;;;;68.43;20.45;;;-3273.80;98.50;;;;;;5010789;28;20038;-74
2023/02/07 04:16:25;;;;;;;79.40;20.73;;;-3273.80;98.50;;;;;;5009659;28;20041;-74
2023/02/07 04:18:50;;;;;;;75.15;20.23;;;-3273.90;98.50;;;;;;5010542;28;20470;-74
2023/02/07 04:21:16;;;;;;;83.18;21.17;;;-3273.90;98.50;;;;;;5009041;28;20061;-74
2023/02/07 04:23:41;;;;;;;83.65;22.00;;;-3273.90;98.50;;;;;;5006194;28;20060;-73
2023/02/07 04:26:06;;;;;;;81.38;21.63;;;-3273.90;98.50;;;;;;5013983;28;20089;-74
2023/02/07 04:28:32;;;;;;;81.80;22.05;;;-3273.80;98.30;;;;;;4994404;28;20056;-74
2023/02/07 04:30:57;;;;;;;68.40;20.77;;;-3273.80;98.30;;;;;;4989300;28;20038;-74
2023/02/07 04:33:23;;;;;;;84.47;20.75;;;-3273.80;98.40;;;;;;4987981;28;20120;-75
2023/02/07 04:36:01;;;;;;;71.97;21.10;;;-3273.90;98.50;;;;;;4985601;28;20049;-74
2023/02/07 04:38:28;;;;;;;62.67;20.77;;;-3273.80;98.40;;;;;;4988734;28;20129;-73
2023/02/07 04:40:58;;;;;;;75.20;20.05;;;-3273.80;98.20;;;;;;4989481;28;20026;-74
2023/02/07 04:43:23;;;;;;;70.55;20.38;;;-3273.80;98.30;;;;;;4994922;28;20509;-75
2023/02/07 04:45:49;;;;;;;73.10;19.45;;;-3273.80;98.30;;;;;;4994994;28;20030;-74
2023/02/07 04:48:15;;;;;;;67.72;18.77;;;-3273.60;98.20;;;;;;4991973;28;20034;-74
2023/02/07 04:50:40;;;;;;;70.95;19.33;;;-3273.60;98.20;;;;;;4994221;28;20073;-73
2023/02/07 04:53:06;;;;;;;79.30;20.08;;;-3273.40;98.20;;;;;;4991847;28;20038;-74
2023/02/07 04:55:33;;;;;;;68.93;18.85;;;-3273.40;98.20;;;;;;4993374;28;20046;-73
2023/02/07 04:57:58;;;;;;;63.17;19.65;;;-3273.20;98.10;;;;;;4991932;28;20026;-76
2023/02/07 05:00:24;;;;;;;84.10;19.70;;;-3273.30;98.30;;;;;;4992524;28;20101;-74
2023/02/07 05:02:49;;;;;;;73.28;19.25;;;-3273.20;98.20;;;;;;4984266;28;20039;-74
2023/02/07 05:05:15;;;;;;;65.78;18.67;;;-3273.20;98.30;;;;;;5005396;28;20036;-74
2023/02/07 05:07:40;;;;;;;69.00;17.48;;;-3273.10;98.20;;;;;;5013049;28;20456;-74
2023/02/07 05:10:06;;;;;;;66.97;18.42;;;-3273.10;98.30;;;;;;4998399;28;20357;-73
2023/02/07 05:12:31;;;;;;;81.30;19.48;;;-3273.00;98.20;;;;;;4988158;28;20398;-74
2023/02/07 05:14:57;;;;;;;72.25;19.40;;;-3272.90;98.20;;;;;;4986766;28;20074;-73
2023/02/07 05:17:22;;;;;;;63.38;18.75;;;-3272.90;98.30;;;;;;4989806;28;20558;-74
2023/02/07 05:19:48;;;;;;;66.43;17.45;;;-3272.90;98.30;;;;;;4989028;28;20077;-74
2023/02/07 05:22:13;;;;;;;67.25;18.77;;;-3272.90;98.40;;;;;;4990041;28;20057;-74
2023/02/07 05:24:38;;;;;;;72.47;18.17;;;-3272.80;98.30;;;;;;4997041;28;20039;-74
2023/02/07 05:27:04;;;;;;;68.68;18.50;;;-3272.80;98.40;;;;;;4993158;28;20050;-74
2023/02/07 05:29:29;;;;;;;70.10;18.63;;;-3272.80;98.40;;;;;;4989914;28;20734;-69
2023/02/07 05:34:39;;;;;;;62.33;17.15;;;-3272.80;98.50;;;;;;4987398;28;20450;-67
2023/02/07 05:37:04;;;;;;;65.80;17.55;;;-3272.80;98.50;;;;;;4990177;28;20117;-72
2023/02/07 05:39:30;;;;;;;65.15;17.05;;;-3272.80;98.50;;;;;;4992648;28;20029;-70
2023/02/07 05:41:55;;;;;;;72.60;18.88;;;-3272.70;98.30;;;;;;4989330;28;20042;-66
2023/02/07 05:44:20;;;;;;;69.18;19.25;;;-3272.60;98.20;;;;;;4984630;28;20061;-67
2023/02/07 05:46:46;;;;;;;72.65;19.65;;;-3272.50;98.30;;;;;;4987066;28;20425;-66
2023/02/07 05:49:11;;;;;;;66.60;18.73;;;-3272.50;98.20;;;;;;4986419;28;20081;-67
2023/02/07 05:51:37;;;;;;;58.72;16.88;;;-3272.40;98.20;;;;;;4989214;28;20034;-67
2023/02/07 05:54:03;;;;;;;56.85;17.27;;;-3272.40;98.40;;;;;;4988127;28;20041;-68
2023/02/07 05:56:28;;;;;;;71.38;17.33;;;-3272.30;98.20;;;;;;4985386;28;20126;-66
2023/02/07 05:58:54;;;;;;;65.60;17.55;;;-3272.20;98.10;;;;;;4988697;28;20043;-69
2023/02/07 06:01:20;;;;;;;65.18;17.65;;;-3272.10;98.20;;;;;;4981738;28;20421;-70
2023/02/07 06:03:45;;;;;;;62.78;18.63;;;-3272.10;98.20;;;;;;4984005;28;20034;-66
2023/02/07 06:06:10;;;;;;;64.97;19.00;;;-3272.20;98.40;;;;;;4985485;28;20045;-67
2023/02/07 06:08:36;;;;;;;67.65;18.40;;;-3272.10;98.20;;;;;;4988639;28;20081;-68
2023/02/07 06:11:01;;;;;;;63.70;17.27;;;-3272.00;98.10;;;;;;4985077;28;20439;-68
2023/02/07 06:13:27;;;;;;;60.75;18.20;;;-3272.00;98.20;;;;;;4989004;28;20117;-66
2023/02/07 06:15:52;;;;;;;63.95;17.08;;;-3272.10;98.40;;;;;;4985545;28;20110;-66
2023/02/07 06:18:18;;;;;;;71.97;18.50;;;-3272.00;98.20;;;;;;4984594;28;20034;-68
2023/02/07 06:20:43;;;;;;;63.08;16.80;;;-3272.10;98.30;;;;;;4988206;28;20493;-67
2023/02/07 06:23:09;;;;;;;75.50;15.90;;;-3272.10;98.30;;;;;;4985282;28;20537;-66
2023/02/07 06:25:34;;;;;;;73.07;18.75;;;-3272.10;98.20;;;;;;4981622;28;20391;-68
2023/02/07 06:28:00;;;;;;;68.32;18.58;;;-3272.00;98.10;;;;;;4983514;28;20144;-66
2023/02/07 06:30:25;;;;;;;70.63;18.85;;;-3271.90;98.00;;;;;;4986251;28;20419;-66
2023/02/07 06:32:51;;;;;;;66.38;18.38;;;-3271.90;98.20;;;;;;4983648;28;20125;-66
2023/02/07 06:35:16;;;;;;;71.18;16.85;;;-3272.00;98.20;;;;;;4987459;28;20113;-66
2023/02/07 06:37:42;;;;;;;66.78;18.83;;;-3272.00;98.30;;;;;;4979088;28;20034;-67
2023/02/07 06:40:08;;;;;;;74.65;17.92;;;-3272.00;98.20;;;;;;4985044;28;20073;-67
2023/02/07 06:42:33;;;;;;;69.90;18.27;;;-3272.00;98.20;;;;;;4994883;28;20044;-66
2023/02/07 06:44:59;;;;;;;75.88;17.85;;;-3271.90;98.20;;;;;;4978433;28;20046;-66
2023/02/07 06:47:24;;;;;;;67.30;18.92;;;-3271.90;98.10;;;;;;4984365;28;20057;-66
2023/02/07 06:49:49;;;;;;;84.85;19.50;;;-3271.80;98.10;;;;;;4983668;28;20122;-66
2023/02/07 06:52:16;;;;;;;68.55;18.42;;;-3271.70;98.00;;;;;;4983672;28;20034;-69
2023/02/07 06:54:42;;;;;;;71.35;18.95;;;-3271.70;98.10;;;;;;4978121;28;20051;-68
2023/02/07 06:57:07;;;;;;;67.40;18.88;;;-3271.80;98.30;;;;;;4989247;28;20543;-66
2023/02/07 06:59:33;;;;;;;73.97;19.13;;;-3271.70;98.20;;;;;;4990327;28;20109;-69
2023/02/07 07:01:59;;;;;;;79.57;20.00;;;-3271.80;98.20;;;;;;4991769;28;20037;-67
2023/02/07 07:04:25;;;;;;;78.60;19.50;;;-3271.80;98.20;;;;;;4990118;28;20414;-68
2023/02/07 07:06:50;;;;;;;69.93;20.05;;;-3271.80;98.20;;;;;;4992429;28;20038;-66
2023/02/07 07:09:16;;;;;;;65.95;19.92;;;-3271.70;98.10;;;;;;4990455;28;20538;-66
2023/02/07 07:11:43;;;;;;;89.68;21.95;;;-3271.60;98.00;;;;;;4990606;28;20105;-67
2023/02/07 07:14:09;;;;;;;75.28;19.58;;;-3271.60;98.10;;;;;;4985463;28;20069;-66
2023/02/07 07:16:35;;;;;;;79.65;20.08;;;-3271.70;98.10;;;;;;4996991;28;20125;-67
2023/02/07 07:19:00;;;;;;;72.88;20.08;;;-3271.80;98.20;;;;;;4994233;28;20442;-66
2023/02/07 07:21:27;;;;;;;79.18;22.25;;;-3271.70;98.10;;;;;;4991084;28;20042;-66
2023/02/07 07:23:53;;;;;;;73.85;19.92;;;-3271.70;98.10;;;;;;4989171;28;20034;-69
2023/02/07 07:26:18;;;;;;;72.63;21.42;;;-3271.80;98.20;;;;;;4986447;28;20052;-66
2023/02/07 07:28:44;;;;;;;81.43;20.25;;;-3271.80;98.10;;;;;;4991346;28;20038;-66
2023/02/07 07:31:10;;;;;;;66.05;18.88;;;-3271.90;98.10;;;;;;4986766;28;20364;-66
2023/02/07 07:33:36;;;;;;;81.82;20.25;;;-3271.90;98.10;;;;;;4991524;28;20026;-66
2023/02/07 07:36:02;;;;;;;81.13;18.95;;;-3271.90;98.10;;;;;;4993678;28;20506;-66
2023/02/07 07:38:28;;;;;;;71.88;19.63;;;-3271.90;98.10;;;;;;4988933;28;20026;-66
2023/02/07 07:40:54;;;;;;;75.43;19.33;;;-3272.00;98.20;;;;;;4988205;28;20038;-67
2023/02/07 07:43:20;;;;;;;80.50;20.65;;;-3272.10;98.20;;;;;;4987562;28;20031;-66
2023/02/07 07:45:51;;;;;;;73.05;20.60;;;-3272.20;98.20;;;;;;4993041;28;20506;-66
2023/02/07 07:48:16;;;;;;;73.95;20.13;;;-3272.20;98.20;;;;;;4992224;28;20081;-66
2023/02/07 07:50:42;;;;;;;81.88;20.85;;;-3272.30;98.30;;;;;;4994871;28;20066;-66
2023/02/07 07:53:07;;;;;;;91.60;21.08;;;-3272.30;98.20;;;;;;4984376;28;20039;-66
2023/02/07 07:55:33;;;;;;;78.68;21.25;;;-3272.50;98.40;;;;;;4991175;28;20026;-67
2023/02/07 07:57:58;;;;;;;75.18;21.50;;;-3272.60;98.40;;;;;;4987873;28;20467;-67
2023/02/07 08:00:24;;;;;;;101.18;22.25;;;-3272.90;98.70;;;;;;4993890;28;20038;-68
2023/02/07 08:02:49;;;;;;;92.22;23.90;;;-3273.20;99.00;;;;;;4995124;28;20439;-66
2023/02/07 08:05:14;;;;;;;95.15;24.83;;;-3273.40;98.90;;;;;;4993619;28;20435;-69
2023/02/07 08:07:40;;;;;;;87.80;22.83;;;-3273.60;99.00;;;;;;4989706;28;20049;-67
2023/02/07 08:10:05;;;;;;;90.90;25.63;;;-3273.50;98.50;;;;;;4997737;28;20077;-67
2023/02/07 08:12:31;;;;;;;91.18;23.63;;;-3273.60;98.50;;;;;;5000021;28;20042;-66
2023/02/07 08:14:57;;;;;;;101.85;25.98;;;-3273.80;98.70;;;;;;4990190;28;20122;-69
2023/02/07 08:17:22;;;;;;;95.78;24.52;;;-3273.90;98.70;;;;;;4992011;28;20107;-67
2023/02/07 08:19:48;;;;;;;102.47;25.23;;;-3273.70;98.10;;;;;;4993731;28;20542;-66
2023/02/07 08:22:14;;;;;;;103.13;26.00;;;-3273.70;98.10;;;;;;4999493;28;20053;-67
2023/02/07 08:24:40;;;;;;;90.32;25.23;;;-3273.70;98.10;;;;;;4987855;28;20089;-67
2023/02/07 08:27:06;;;;;;;96.88;24.50;;;-3273.70;98.00;;;;;;4994721;28;20057;-66
2023/02/07 08:29:31;;;;;;;95.68;23.23;;;-3273.70;98.00;;;;;;4989858;28;20038;-69
2023/02/07 08:31:57;;;;;;;101.38;24.00;;;-3273.70;97.90;;;;;;4985096;28;20534;-66
2023/02/07 08:34:25;;;;;;;99.57;23.50;;;-3273.80;97.90;;;;;;4993891;28;20317;-69
2023/02/07 08:36:51;;;;;;;94.68;23.70;;;-3273.90;97.90;;;;;;4993927;28;20030;-66
2023/02/07 08:39:16;;;;;;;92.80;24.10;;;-3274.00;97.90;;;;;;4991399;28;20031;-69
2023/02/07 08:41:42;;;;;;;94.40;23.88;;;-3274.10;97.90;;;;;;4993399;28;20058;-67
2023/02/07 08:44:07;;;;;;;108.20;25.75;;;-3274.20;97.70;;;;;;4989033;28;20037;-66
2023/02/07 08:46:33;;;;;;;92.85;24.08;;;-3274.30;97.80;;;;;;4989629;28;20395;-66
2023/02/07 08:48:59;;;;;;;102.25;25.38;;;-3274.50;97.60;;;;;;4992805;28;20049;-66
2023/02/07 08:51:24;;;;;;;102.18;25.63;;;-3274.70;97.80;;;;;;4995139;28;20423;-66
2023/02/07 08:53:50;;;;;;;109.40;27.35;;;-3275.00;97.90;;;;;;4988491;28;20038;-66
2023/02/07 08:56:15;;;;;;;107.25;25.83;;;-3275.00;97.30;;;;;;4990748;28;20034;-67
2023/02/07 08:58:41;;;;;;;104.03;26.00;;;-3275.10;97.30;;;;;;5002266;28;20699;-66
2023/02/07 09:01:09;;;;;;;111.65;29.02;;;-3275.30;97.30;;;;;;5012961;28;20034;-67
2023/02/07 09:03:38;;;;;;;111.13;27.88;;;-3275.30;96.70;;;;;;4993638;28;20038;-67
2023/02/07 09:06:05;;;;;;;101.28;27.38;;;-3275.70;97.10;;;;;;4990690;28;20045;-66
2023/02/07 09:08:30;;;;;;;109.93;28.33;;;-3275.60;96.10;;;;;;5004264;28;20031;-68
2023/02/07 09:10:56;;;;;;;110.30;28.17;;;-3275.70;96.20;;;;;;4991339;28;20030;-67
2023/02/07 09:13:22;;;;;;;107.75;28.33;;;-3275.90;96.10;;;;;;4987625;28;20064;-68
2023/02/07 09:15:55;;;;;;;101.15;27.65;;;-3276.20;96.40;;;;;;4987063;28;20030;-66
2023/02/07 09:18:21;;;;;;;106.82;28.45;;;-3276.10;95.10;;;;;;4985999;28;20030;-68
2023/02/07 09:20:47;;;;;;;95.30;28.25;;;-3276.30;95.40;;;;;;4987058;28;20510;-68
2023/02/07 09:23:18;;;;;;;94.72;27.88;;;-3276.40;95.20;;;;;;4991620;28;20046;-67
2023/02/07 09:25:49;;;;;;;95.63;27.85;;;-3276.70;95.40;;;;;;4986881;28;20031;-67
2023/02/07 09:28:15;;;;;;;84.28;27.77;;;-3276.70;94.40;;;;;;4984569;28;20487;-69
2023/02/07 09:30:43;;;;;;;79.53;24.83;;;-3276.70;94.00;;;;;;4992058;28;20070;-68
2023/02/07 09:33:10;;;;;;;73.90;26.15;;;0.00;94.10;;;;;;4994613;28;20031;-67
2023/02/07 09:35:45;;;;;;;69.25;25.13;;;0.00;93.80;;;;;;5001282;28;20117;-66
2023/02/07 09:38:22;;;;;;;72.97;24.42;;;0.00;92.90;;;;;;4990517;28;20073;-73
2023/02/07 09:40:49;;;;;;;59.35;22.13;;;0.20;93.00;;;;;;4988892;28;20034;-70
2023/02/07 09:43:55;;;;;;;59.50;22.45;;;0.30;93.10;;;;;;4986563;28;20520;-71
2023/02/07 09:46:27;;;;;;;58.08;21.38;;;0.40;92.40;;;;;;4985620;28;20085;-70
2023/02/07 09:49:24;;;;;;;46.85;20.15;;;0.40;91.70;;;;;;4986097;28;20253;-67
2023/02/07 09:51:51;;;;;;;45.88;19.15;;;0.60;91.50;;;;;;4994019;28;20049;-69
2023/02/07 09:54:27;;;;;;;50.97;22.67;;;0.80;91.90;;;;;;4988765;28;20081;-67
2023/02/07 09:56:57;;;;;;;45.90;20.50;;;1.00;91.90;;;;;;4993711;28;20054;-67
2023/02/07 10:00:09;;;;;;;42.67;20.97;;;0.90;90.10;;;;;;4989156;28;20037;-67
2023/02/07 10:02:53;;;;;;;;;;;0.90;91.50;;;;;;4949449;28;20047;-68
2023/02/07 10:05:25;;;;;;;38.67;18.10;;;1.10;92.00;;;;;;4993655;28;19952;-68
2023/02/07 10:07:51;;;;;;;38.05;18.58;;;1.00;90.40;;;;;;4991001;28;20069;-68
2023/02/07 10:10:50;;;;;;;38.00;18.95;;;1.20;91.00;;;;;;4983792;28;20066;-68
2023/02/07 10:13:45;;;;;;;33.42;18.60;;;1.20;90.30;;;;;;4959111;28;20123;-69
2023/02/07 10:16:45;;;;;;;34.75;18.00;;;1.00;89.80;;;;;;4994684;28;20054;-67
2023/02/07 10:19:34;;;;;;;30.23;17.27;;;1.20;90.20;;;;;;4991680;28;20036;-68
2023/02/07 10:22:24;;;;;;;29.00;17.25;;;1.20;89.60;;;;;;4987437;28;20443;-68
2023/02/07 10:25:14;;;;;;;25.23;15.45;;;1.60;90.80;;;;;;4991634;28;20374;-71
2023/02/07 10:28:26;;;;;;;26.52;15.77;;;1.50;89.90;;;;;;4987015;28;20058;-68
2023/02/07 10:30:56;;;;;;;25.13;14.52;;;1.70;89.60;;;;;;4979118;28;20033;-68
2023/02/07 10:33:28;;;;;;;23.83;14.10;;;1.70;88.80;;;;;;4991318;28;20026;-67
2023/02/07 10:35:54;;;;;;;20.65;13.07;;;1.60;88.00;;;;;;4986364;28;20537;-70
2023/02/07 10:38:41;;;;;;;21.98;13.77;;;1.80;88.40;;;;;;4986865;28;20031;-68
2023/02/07 10:41:32;;;;;;;21.05;12.63;;;1.90;88.00;;;;;;4988540;28;20467;-69
2023/02/07 10:43:58;;;;;;;18.90;11.98;;;2.10;88.10;;;;;;4992197;28;20049;-67
2023/02/07 10:46:24;;;;;;;17.05;10.70;;;2.10;87.60;;;;;;4990929;28;20038;-68
2023/02/07 10:48:49;;;;;;;16.70;10.40;;;2.10;86.90;;;;;;4989205;28;20034;-67
2023/02/07 10:51:33;;;;;;;16.52;9.65;;;2.10;86.60;;;;;;4987411;28;20402;-67
2023/02/07 10:54:11;;;;;;;17.80;10.98;;;1.90;86.00;;;;;;4983209;28;20046;-67
2023/02/07 10:56:49;;;;;;;14.40;9.73;;;2.00;86.50;;;;;;4987794;28;20062;-68
2023/02/07 10:59:44;;;;;;;16.98;10.25;;;2.00;85.80;;;;;;4991851;28;20034;-68
2023/02/07 11:02:31;;;;;;;18.77;10.80;;;2.10;86.50;;;;;;4988540;28;20037;-67
2023/02/07 11:04:58;;;;;;;17.83;10.07;;;2.20;86.50;;;;;;4990408;28;20030;-67
2023/02/07 11:07:23;;;;;;;16.73;10.60;;;2.40;86.40;;;;;;5002987;28;20119;-67
2023/02/07 11:09:49;;;;;;;16.23;11.15;;;2.40;85.90;;;;;;4985612;28;20038;-69
2023/02/07 11:12:19;;;;;;;16.05;10.98;;;2.30;85.10;;;;;;4983676;28;20423;-67
2023/02/07 11:15:02;;;;;;;18.20;11.10;;;2.20;85.50;;;;;;4988311;28;20034;-67
2023/02/07 11:17:28;;;;;;;18.13;10.95;;;2.40;85.90;;;;;;5001104;28;20091;-68
2023/02/07 11:19:53;;;;;;;17.10;10.55;;;2.70;85.60;;;;;;4989042;28;20117;-66
2023/02/07 11:22:21;;;;;;;17.02;10.52;;;2.80;85.40;;;;;;4997734;28;20049;-67
2023/02/07 11:24:49;;;;;;;18.50;10.75;;;2.90;85.10;;;;;;4993128;28;20042;-70
2023/02/07 11:27:18;;;;;;;19.05;11.18;;;2.80;84.10;;;;;;4988218;28;20505;-68
2023/02/07 11:29:53;;;;;;;17.92;10.98;;;2.90;84.70;;;;;;4985061;28;20034;-75
2023/02/07 11:32:20;;;;;;;13.50;9.50;;;3.10;84.70;;;;;;4993400;28;21519;-72
2023/02/07 11:34:57;;;;;;;12.55;8.25;;;3.10;83.20;;;;;;4991990;28;20050;-69
2023/02/07 11:37:29;;;;;;;15.27;9.13;;;3.30;82.70;;;;;;4984931;28;20362;-68
2023/02/07 11:40:16;;;;;;;14.20;8.88;;;3.50;83.30;;;;;;4987816;28;20459;-68
2023/02/07 11:42:41;;;;;;;15.23;9.73;;;3.70;82.20;;;;;;4991528;28;20044;-69
2023/02/07 11:45:13;;;;;;;12.68;8.82;;;3.70;82.50;;;;;;4987881;28;20145;-67
2023/02/07 11:47:41;;;;;;;13.88;8.63;;;3.80;81.30;;;;;;4987601;28;20018;-68
2023/02/07 11:50:15;;;;;;;13.05;8.38;;;3.90;80.80;;;;;;4987659;28;20034;-67
2023/02/07 11:52:50;;;;;;;16.55;8.70;;;4.00;80.70;;;;;;4997247;28;20088;-68
2023/02/07 11:55:22;;;;;;;13.95;8.40;;;4.10;81.10;;;;;;4989128;28;20081;-68
2023/02/07 11:57:47;;;;;;;12.27;8.15;;;4.30;80.60;;;;;;4992772;28;20481;-67
2023/02/07 12:00:23;;;;;;;11.27;7.70;;;4.50;79.00;;;;;;4992469;28;20038;-67
2023/02/07 12:03:11;;;;;;;12.20;7.72;;;4.60;79.70;;;;;;4992496;28;20038;-68
2023/02/07 12:05:41;;;;;;;12.50;8.55;;;4.70;78.20;;;;;;4989903;28;20168;-69
2023/02/07 12:08:15;;;;;;;13.43;8.65;;;4.80;78.40;;;;;;4996142;28;20030;-67
2023/02/07 12:10:45;;;;;;;10.43;7.57;;;5.00;77.50;;;;;;4991101;28;20038;-67
2023/02/07 12:13:21;;;;;;;11.00;7.47;;;4.70;77.10;;;;;;4992461;28;20034;-67
2023/02/07 12:15:53;;;;;;;9.82;6.82;;;5.10;77.10;;;;;;4986174;28;20410;-68
2023/02/07 12:18:30;;;;;;;10.85;7.07;;;5.10;76.10;;;;;;4994969;28;20052;-67
2023/02/07 12:21:05;;;;;;;11.95;7.35;;;5.30;75.50;;;;;;4990679;28;20034;-67
2023/02/07 12:23:43;;;;;;;11.32;6.85;;;5.40;74.70;;;;;;4994284;28;20084;-68
2023/02/07 12:26:31;;;;;;;10.13;6.60;;;5.60;72.80;;;;;;4996984;28;20034;-68
2023/02/07 12:29:34;;;;;;;9.80;6.75;;;5.40;72.70;;;;;;5002244;28;20501;-68